sensor_id;sensor_type;location;lat;lon;timestamp;pressure;altitude;pressure_sealevel;temperature;humidity
65280;BME280;51878;55.748;48.742;2024-02-26T00:03:40;101283.56;;;-10.46;45.66
65280;BME280;51878;55.748;48.742;2024-02-26T00:08:44;101341.94;;;-10.23;45.21
65280;BME280;51878;55.748;48.742;2024-02-26T00:13:46;101304.47;;;-10.35;45.37
65280;BME280;51878;55.748;48.742;2024-02-26T00:18:49;101294.00;;;-10.43;46.18
65280;BME280;51878;55.748;48.742;2024-02-26T00:23:53;101297.53;;;-10.52;46.36
65280;BME280;51878;55.748;48.742;2024-02-26T00:28:55;101330.69;;;-10.43;45.92
65280;BME280;51878;55.748;48.742;2024-02-26T00:33:57;101364.75;;;-10.35;46.06
65280;BME280;51878;55.748;48.742;2024-02-26T00:39:00;101298.53;;;-10.71;45.75
65280;BME280;51878;55.748;48.742;2024-02-26T00:44:02;101349.91;;;-10.38;44.81
65280;BME280;51878;55.748;48.742;2024-02-26T00:49:04;101357.81;;;-10.49;45.82
65280;BME280;51878;55.748;48.742;2024-02-26T00:54:07;101352.63;;;-10.64;45.78
65280;BME280;51878;55.748;48.742;2024-02-26T00:59:09;101374.44;;;-10.57;45.97
65280;BME280;51878;55.748;48.742;2024-02-26T01:04:11;101355.28;;;-10.69;46.46
65280;BME280;51878;55.748;48.742;2024-02-26T01:09:14;101357.91;;;-10.69;47.42
65280;BME280;51878;55.748;48.742;2024-02-26T01:14:16;101294.28;;;-11.14;48.03
65280;BME280;51878;55.748;48.742;2024-02-26T01:19:18;101343.13;;;-10.94;47.97
65280;BME280;51878;55.748;48.742;2024-02-26T01:24:20;101337.03;;;-11.03;47.86
65280;BME280;51878;55.748;48.742;2024-02-26T01:29:23;101322.22;;;-11.16;47.75
65280;BME280;51878;55.748;48.742;2024-02-26T01:34:25;101356.25;;;-11.02;47.97
65280;BME280;51878;55.748;48.742;2024-02-26T01:39:27;101360.56;;;-10.92;46.96
65280;BME280;51878;55.748;48.742;2024-02-26T01:44:31;101308.28;;;-11.23;46.05
65280;BME280;51878;55.748;48.742;2024-02-26T01:49:33;101322.22;;;-11.16;47.26
65280;BME280;51878;55.748;48.742;2024-02-26T01:54:37;101355.34;;;-11.07;47.24
65280;BME280;51878;55.748;48.742;2024-02-26T01:59:41;101357.97;;;-11.03;47.17
65280;BME280;51878;55.748;48.742;2024-02-26T02:04:43;101355.38;;;-11.18;47.24
65280;BME280;51878;55.748;48.742;2024-02-26T02:09:45;101344.06;;;-11.32;47.34
65280;BME280;51878;55.748;48.742;2024-02-26T02:14:48;101261.28;;;-11.70;47.50
65280;BME280;51878;55.748;48.742;2024-02-26T02:19:50;101296.09;;;-11.51;46.86
65280;BME280;51878;55.748;48.742;2024-02-26T02:24:53;101345.81;;;-11.36;47.24
65280;BME280;51878;55.748;48.742;2024-02-26T02:29:55;101331.84;;;-11.32;47.45
65280;BME280;51878;55.748;48.742;2024-02-26T02:34:58;101277.81;;;-11.65;47.02
65280;BME280;51878;55.748;48.742;2024-02-26T02:40:00;101326.63;;;-11.38;46.96
65280;BME280;51878;55.748;48.742;2024-02-26T02:45:04;101291.75;;;-11.69;46.83
65280;BME280;51878;55.748;48.742;2024-02-26T02:50:07;101190.72;;;-12.19;46.58
65280;BME280;51878;55.748;48.742;2024-02-26T02:55:09;101333.63;;;-11.41;46.03
65280;BME280;51878;55.748;48.742;2024-02-26T03:00:12;101313.56;;;-11.52;45.74
65280;BME280;51878;55.748;48.742;2024-02-26T03:05:14;101266.47;;;-11.84;45.58
65280;BME280;51878;55.748;48.742;2024-02-26T03:10:17;101312.72;;;-11.66;45.56
65280;BME280;51878;55.748;48.742;2024-02-26T03:15:19;101297.00;;;-11.72;45.16
65280;BME280;51878;55.748;48.742;2024-02-26T03:20:21;101249.13;;;-11.94;45.05
65280;BME280;51878;55.748;48.742;2024-02-26T03:25:24;101331.88;;;-11.61;46.26
65280;BME280;51878;55.748;48.742;2024-02-26T03:30:26;101279.63;;;-12.10;45.65
65280;BME280;51878;55.748;48.742;2024-02-26T03:35:28;101323.19;;;-11.89;46.01
65280;BME280;51878;55.748;48.742;2024-02-26T03:40:30;101297.84;;;-12.29;46.44
65280;BME280;51878;55.748;48.742;2024-02-26T03:45:33;101297.88;;;-12.19;46.54
65280;BME280;51878;55.748;48.742;2024-02-26T03:50:35;101324.03;;;-12.10;45.38
65280;BME280;51878;55.748;48.742;2024-02-26T03:55:37;101301.31;;;-12.33;46.05
65280;BME280;51878;55.748;48.742;2024-02-26T04:00:40;101333.63;;;-12.12;45.89
65280;BME280;51878;55.748;48.742;2024-02-26T04:05:42;101293.50;;;-12.27;45.93
65280;BME280;51878;55.748;48.742;2024-02-26T04:10:44;101301.31;;;-12.40;45.66
65280;BME280;51878;55.748;48.742;2024-02-26T04:15:50;101269.13;;;-12.41;46.12
65280;BME280;51878;55.748;48.742;2024-02-26T04:20:52;101307.47;;;-12.23;46.37
65280;BME280;51878;55.748;48.742;2024-02-26T04:25:54;101293.50;;;-12.39;46.38
65280;BME280;51878;55.748;48.742;2024-02-26T04:30:57;101291.78;;;-12.28;46.08
65280;BME280;51878;55.748;48.742;2024-02-26T04:36:00;101228.97;;;-12.68;46.04
65280;BME280;51878;55.748;48.742;2024-02-26T04:41:02;101279.56;;;-12.27;45.22
65280;BME280;51878;55.748;48.742;2024-02-26T04:46:04;101282.19;;;-12.19;45.24
65280;BME280;51878;55.748;48.742;2024-02-26T04:51:06;101349.28;;;-11.86;44.99
65280;BME280;51878;55.748;48.742;2024-02-26T04:56:09;101330.13;;;-11.79;44.78
65280;BME280;51878;55.748;48.742;2024-02-26T05:01:11;101346.72;;;-11.61;44.58
65280;BME280;51878;55.748;48.742;2024-02-26T05:06:14;101318.81;;;-11.76;43.99
65280;BME280;51878;55.748;48.742;2024-02-26T05:11:17;101277.84;;;-11.83;43.95
65280;BME280;51878;55.748;48.742;2024-02-26T05:16:20;101367.59;;;-11.35;43.54
65280;BME280;51878;55.748;48.742;2024-02-26T05:21:26;101373.72;;;-11.09;43.25
65280;BME280;51878;55.748;48.742;2024-02-26T05:26:28;101348.38;;;-10.97;42.68
65280;BME280;51878;55.748;48.742;2024-02-26T05:31:31;101360.50;;;-10.72;42.16
65280;BME280;51878;55.748;48.742;2024-02-26T05:36:33;101312.50;;;-10.75;42.01
65280;BME280;51878;55.748;48.742;2024-02-26T05:41:36;101368.22;;;-10.36;41.28
65280;BME280;51878;55.748;48.742;2024-02-26T05:46:45;101248.78;;;-10.81;41.18
65280;BME280;51878;55.748;48.742;2024-02-26T05:51:49;101261.75;;;-10.56;40.60
65280;BME280;51878;55.748;48.742;2024-02-26T05:56:53;101396.75;;;-9.77;40.28
65280;BME280;51878;55.748;48.742;2024-02-26T06:01:55;101367.69;;;-9.53;39.92
65280;BME280;51878;55.748;48.742;2024-02-26T06:07:00;101296.22;;;-9.85;39.93
65280;BME280;51878;55.748;48.742;2024-02-26T06:12:10;101325.75;;;-9.61;40.03
65280;BME280;51878;55.748;48.742;2024-02-26T06:17:12;101322.03;;;-9.36;39.11
65280;BME280;51878;55.748;48.742;2024-02-26T06:22:15;101362.59;;;-8.78;38.60
65280;BME280;51878;55.748;48.742;2024-02-26T06:27:17;101357.22;;;-8.65;38.81
65280;BME280;51878;55.748;48.742;2024-02-26T06:32:20;101376.81;;;-8.21;38.20
65280;BME280;51878;55.748;48.742;2024-02-26T06:37:22;101372.97;;;-7.97;37.52
65280;BME280;51878;55.748;48.742;2024-02-26T06:42:24;101338.69;;;-7.93;37.61
65280;BME280;51878;55.748;48.742;2024-02-26T06:47:26;101356.44;;;-7.48;37.12
65280;BME280;51878;55.748;48.742;2024-02-26T06:52:29;101249.44;;;-8.06;37.01
65280;BME280;51878;55.748;48.742;2024-02-26T06:57:31;101304.47;;;-7.38;36.07
65280;BME280;51878;55.748;48.742;2024-02-26T07:02:33;101363.25;;;-6.87;36.04
65280;BME280;51878;55.748;48.742;2024-02-26T07:07:37;101343.25;;;-6.52;36.20
65280;BME280;51878;55.748;48.742;2024-02-26T07:12:40;101363.66;;;-6.18;35.87
65280;BME280;51878;55.748;48.742;2024-02-26T07:17:42;101352.09;;;-6.12;35.23
65280;BME280;51878;55.748;48.742;2024-02-26T07:22:49;101230.44;;;-6.39;35.43
65280;BME280;51878;55.748;48.742;2024-02-26T07:27:51;101277.41;;;-6.56;35.49
65280;BME280;51878;55.748;48.742;2024-02-26T07:32:53;101348.44;;;-6.47;35.95
65280;BME280;51878;55.748;48.742;2024-02-26T07:37:56;101341.38;;;-6.47;36.66
65280;BME280;51878;55.748;48.742;2024-02-26T07:42:58;101351.25;;;-6.13;36.14
65280;BME280;51878;55.748;48.742;2024-02-26T07:48:00;101297.28;;;-6.01;36.26
65280;BME280;51878;55.748;48.742;2024-02-26T07:53:03;101320.22;;;-5.31;35.84
65280;BME280;51878;55.748;48.742;2024-02-26T07:58:05;101347.97;;;-4.81;35.53
65280;BME280;51878;55.748;48.742;2024-02-26T08:03:10;101348.84;;;-4.49;34.97
65280;BME280;51878;55.748;48.742;2024-02-26T08:08:12;101345.63;;;-4.29;34.41
65280;BME280;51878;55.748;48.742;2024-02-26T08:13:14;101280.03;;;-4.49;34.81
65280;BME280;51878;55.748;48.742;2024-02-26T08:18:17;101350.75;;;-4.23;34.79
65280;BME280;51878;55.748;48.742;2024-02-26T08:23:19;101319.19;;;-4.30;34.24
65280;BME280;51878;55.748;48.742;2024-02-26T08:28:21;101346.56;;;-3.72;33.96
65280;BME280;51878;55.748;48.742;2024-02-26T08:33:24;101332.47;;;-3.19;32.55
65280;BME280;51878;55.748;48.742;2024-02-26T08:38:26;101266.94;;;-3.69;33.22
65280;BME280;51878;55.748;48.742;2024-02-26T08:43:28;101318.94;;;-3.38;33.12
65280;BME280;51878;55.748;48.742;2024-02-26T08:48:31;101323.53;;;-3.17;32.85
65280;BME280;51878;55.748;48.742;2024-02-26T08:53:34;101200.97;;;-3.77;32.25
65280;BME280;51878;55.748;48.742;2024-02-26T08:58:43;101326.75;;;-2.82;32.63
65280;BME280;51878;55.748;48.742;2024-02-26T09:03:45;101268.97;;;-2.99;32.63
65280;BME280;51878;55.748;48.742;2024-02-26T09:08:47;101308.75;;;-2.74;32.33
65280;BME280;51878;55.748;48.742;2024-02-26T09:13:50;101305.72;;;-3.13;32.16
65280;BME280;51878;55.748;48.742;2024-02-26T09:18:52;101321.97;;;-2.72;32.42
65280;BME280;51878;55.748;48.742;2024-02-26T09:23:54;101312.09;;;-2.94;32.43
65280;BME280;51878;55.748;48.742;2024-02-26T09:28:57;101291.78;;;-3.20;33.04
65280;BME280;51878;55.748;48.742;2024-02-26T09:34:00;101312.69;;;-2.60;33.16
65280;BME280;51878;55.748;48.742;2024-02-26T09:39:03;101320.94;;;-1.53;31.78
65280;BME280;51878;55.748;48.742;2024-02-26T09:44:05;101257.16;;;-1.55;31.07
65280;BME280;51878;55.748;48.742;2024-02-26T09:49:08;101293.25;;;-1.27;30.36
65280;BME280;51878;55.748;48.742;2024-02-26T09:54:13;101324.72;;;-0.55;30.95
65280;BME280;51878;55.748;48.742;2024-02-26T09:59:17;101279.84;;;-0.64;31.06
65280;BME280;51878;55.748;48.742;2024-02-26T10:04:20;101310.50;;;0.03;30.69
65280;BME280;51878;55.748;48.742;2024-02-26T10:09:23;101299.75;;;-0.33;31.03
65280;BME280;51878;55.748;48.742;2024-02-26T10:14:26;101258.38;;;-0.80;31.08
65280;BME280;51878;55.748;48.742;2024-02-26T10:19:29;101256.78;;;-0.84;30.79
65280;BME280;51878;55.748;48.742;2024-02-26T10:24:34;101293.22;;;-1.05;31.21
65280;BME280;51878;55.748;48.742;2024-02-26T10:29:37;101299.38;;;-1.05;31.29
65280;BME280;51878;55.748;48.742;2024-02-26T10:34:39;101292.41;;;-1.07;31.98
65280;BME280;51878;55.748;48.742;2024-02-26T10:39:47;101254.94;;;-1.02;31.55
65280;BME280;51878;55.748;48.742;2024-02-26T10:44:49;101262.59;;;-1.36;32.09
65280;BME280;51878;55.748;48.742;2024-02-26T10:49:52;101267.31;;;-1.01;32.58
65280;BME280;51878;55.748;48.742;2024-02-26T10:54:56;101262.50;;;0.03;30.59
65280;BME280;51878;55.748;48.742;2024-02-26T11:00:02;101266.31;;;1.54;29.42
65280;BME280;51878;55.748;48.742;2024-02-26T11:05:07;101212.19;;;1.82;28.31
65280;BME280;51878;55.748;48.742;2024-02-26T11:10:11;101268.09;;;2.49;28.45
65280;BME280;51878;55.748;48.742;2024-02-26T11:15:14;101277.19;;;2.62;28.62
65280;BME280;51878;55.748;48.742;2024-02-26T11:20:17;101274.19;;;1.73;28.82
65280;BME280;51878;55.748;48.742;2024-02-26T11:25:21;101187.44;;;1.47;28.74
65280;BME280;51878;55.748;48.742;2024-02-26T11:30:25;101258.97;;;1.42;29.60
65280;BME280;51878;55.748;48.742;2024-02-26T11:35:28;101212.69;;;2.05;29.66
65280;BME280;51878;55.748;48.742;2024-02-26T11:40:31;101170.72;;;2.21;29.03
65280;BME280;51878;55.748;48.742;2024-02-26T11:50:50;101154.94;;;1.71;27.57
65280;BME280;51878;55.748;48.742;2024-02-26T12:06:57;101258.22;;;0.72;30.22
65280;BME280;51878;55.748;48.742;2024-02-26T12:12:06;101262.09;;;-0.26;32.07
65280;BME280;51878;55.748;48.742;2024-02-26T12:17:23;101250.06;;;-0.93;33.73
65280;BME280;51878;55.748;48.742;2024-02-26T12:22:26;101099.22;;;-2.12;34.01
65280;BME280;51878;55.748;48.742;2024-02-26T12:27:29;101243.47;;;-1.66;35.52
65280;BME280;51878;55.748;48.742;2024-02-26T12:32:32;101244.22;;;-2.29;35.81
65280;BME280;51878;55.748;48.742;2024-02-26T12:37:38;101196.47;;;-2.99;37.67
65280;BME280;51878;55.748;48.742;2024-02-26T12:42:43;101200.31;;;-3.33;37.80
65280;BME280;51878;55.748;48.742;2024-02-26T12:47:45;101188.97;;;-3.62;38.14
65280;BME280;51878;55.748;48.742;2024-02-26T12:52:49;101240.25;;;-3.38;37.76
65280;BME280;51878;55.748;48.742;2024-02-26T12:58:01;101213.19;;;-3.99;38.72
65280;BME280;51878;55.748;48.742;2024-02-26T13:03:04;101219.22;;;-4.80;39.89
65280;BME280;51878;55.748;48.742;2024-02-26T13:08:08;101188.97;;;-5.32;40.27
65280;BME280;51878;55.748;48.742;2024-02-26T13:13:10;101187.00;;;-5.57;40.59
65280;BME280;51878;55.748;48.742;2024-02-26T13:18:14;101198.69;;;-5.66;41.48
65280;BME280;51878;55.748;48.742;2024-02-26T13:23:17;101051.03;;;-6.75;41.53
65280;BME280;51878;55.748;48.742;2024-02-26T13:28:19;101190.28;;;-6.14;41.30
65280;BME280;51878;55.748;48.742;2024-02-26T13:33:22;101223.59;;;-6.10;42.11
65280;BME280;51878;55.748;48.742;2024-02-26T13:38:27;101158.88;;;-6.64;41.60
65280;BME280;51878;55.748;48.742;2024-02-26T13:43:30;101200.13;;;-6.61;42.54
65280;BME280;51878;55.748;48.742;2024-02-26T13:48:32;101219.53;;;-6.62;42.51
65280;BME280;51878;55.748;48.742;2024-02-26T13:53:35;101214.41;;;-6.70;42.52
65280;BME280;51878;55.748;48.742;2024-02-26T13:58:37;101245.88;;;-6.61;42.71
65280;BME280;51878;55.748;48.742;2024-02-26T14:03:39;101181.06;;;-7.15;43.00
65280;BME280;51878;55.748;48.742;2024-02-26T14:08:41;101148.50;;;-7.54;43.77
65280;BME280;51878;55.748;48.742;2024-02-26T14:13:44;101211.09;;;-7.23;44.50
65280;BME280;51878;55.748;48.742;2024-02-26T14:18:48;101229.53;;;-7.23;45.09
65280;BME280;51878;55.748;48.742;2024-02-26T14:23:50;101238.50;;;-7.32;45.50
65280;BME280;51878;55.748;48.742;2024-02-26T14:28:53;101219.66;;;-7.59;45.94
65280;BME280;51878;55.748;48.742;2024-02-26T14:33:55;101165.28;;;-8.10;45.59
65280;BME280;51878;55.748;48.742;2024-02-26T14:38:58;101245.16;;;-7.61;46.08
65280;BME280;51878;55.748;48.742;2024-02-26T14:44:00;101215.78;;;-7.86;46.54
65280;BME280;51878;55.748;48.742;2024-02-26T14:49:02;101248.13;;;-7.81;46.56
65280;BME280;51878;55.748;48.742;2024-02-26T14:54:05;101202.94;;;-8.06;46.68
65280;BME280;51878;55.748;48.742;2024-02-26T14:59:07;101245.66;;;-7.90;46.46
65280;BME280;51878;55.748;48.742;2024-02-26T15:04:09;101252.63;;;-7.86;45.98
65280;BME280;51878;55.748;48.742;2024-02-26T15:09:12;101194.38;;;-8.19;46.58
65280;BME280;51878;55.748;48.742;2024-02-26T15:14:14;101240.50;;;-7.96;45.99
65280;BME280;51878;55.748;48.742;2024-02-26T15:19:17;101093.75;;;-8.83;45.53
65280;BME280;51878;55.748;48.742;2024-02-26T15:24:44;101191.06;;;-8.32;46.00
65280;BME280;51878;55.748;48.742;2024-02-26T15:29:48;101231.13;;;-8.13;45.77
65280;BME280;51878;55.748;48.742;2024-02-26T15:34:51;101191.16;;;-8.38;45.55
65280;BME280;51878;55.748;48.742;2024-02-26T15:39:53;101217.88;;;-8.08;45.12
65280;BME280;51878;55.748;48.742;2024-02-26T15:44:56;101207.28;;;-8.02;44.79
65280;BME280;51878;55.748;48.742;2024-02-26T15:49:59;101210.06;;;-8.11;44.81
65280;BME280;51878;55.748;48.742;2024-02-26T15:55:01;101211.88;;;-8.16;44.29
65280;BME280;51878;55.748;48.742;2024-02-26T16:00:04;101154.66;;;-8.55;44.35
65280;BME280;51878;55.748;48.742;2024-02-26T16:05:12;101174.56;;;-8.40;43.89
65280;BME280;51878;55.748;48.742;2024-02-26T16:10:16;101168.59;;;-8.51;43.66
65280;BME280;51878;55.748;48.742;2024-02-26T16:15:19;101208.59;;;-8.31;43.43
65280;BME280;51878;55.748;48.742;2024-02-26T16:20:25;101139.41;;;-8.36;42.84
65280;BME280;51878;55.748;48.742;2024-02-26T16:25:31;101149.72;;;-8.22;41.41
65280;BME280;51878;55.748;48.742;2024-02-26T16:30:33;101177.41;;;-8.01;40.91
65280;BME280;51878;55.748;48.742;2024-02-26T16:35:35;101141.75;;;-8.17;42.03
65280;BME280;51878;55.748;48.742;2024-02-26T16:40:40;101200.09;;;-7.94;41.78
65280;BME280;51878;55.748;48.742;2024-02-26T16:45:42;101083.84;;;-8.64;41.98
65280;BME280;51878;55.748;48.742;2024-02-26T16:50:47;101185.47;;;-8.08;41.93
65280;BME280;51878;55.748;48.742;2024-02-26T16:55:51;101156.97;;;-8.36;42.22
65280;BME280;51878;55.748;48.742;2024-02-26T17:00:53;101145.50;;;-8.31;41.94
65280;BME280;51878;55.748;48.742;2024-02-26T17:05:55;101184.53;;;-8.06;41.69
65280;BME280;51878;55.748;48.742;2024-02-26T17:10:58;101119.28;;;-8.38;41.95
65280;BME280;51878;55.748;48.742;2024-02-26T17:16:00;101157.78;;;-8.31;42.13
65280;BME280;51878;55.748;48.742;2024-02-26T17:21:03;101156.81;;;-8.27;42.36
65280;BME280;51878;55.748;48.742;2024-02-26T17:26:05;101176.81;;;-8.17;42.10
65280;BME280;51878;55.748;48.742;2024-02-26T17:31:08;101187.19;;;-8.07;42.79
65280;BME280;51878;55.748;48.742;2024-02-26T17:36:12;101166.22;;;-8.14;42.08
65280;BME280;51878;55.748;48.742;2024-02-26T17:41:15;101119.44;;;-8.44;42.61
65280;BME280;51878;55.748;48.742;2024-02-26T17:46:17;101151.41;;;-8.18;42.60
65280;BME280;51878;55.748;48.742;2024-02-26T17:51:20;101154.75;;;-8.10;42.87
65280;BME280;51878;55.748;48.742;2024-02-26T17:56:22;101172.25;;;-8.05;42.87
65280;BME280;51878;55.748;48.742;2024-02-26T18:01:24;101167.00;;;-8.07;42.58
65280;BME280;51878;55.748;48.742;2024-02-26T18:06:26;101112.22;;;-8.33;43.46
65280;BME280;51878;55.748;48.742;2024-02-26T18:11:29;101164.38;;;-8.07;43.54
65280;BME280;51878;55.748;48.742;2024-02-26T18:16:31;101174.00;;;-8.06;43.72
65280;BME280;51878;55.748;48.742;2024-02-26T18:21:34;101152.28;;;-8.19;43.82
65280;BME280;51878;55.748;48.742;2024-02-26T18:26:36;101097.53;;;-8.45;44.00
65280;BME280;51878;55.748;48.742;2024-02-26T18:31:38;101168.00;;;-8.16;44.37
65280;BME280;51878;55.748;48.742;2024-02-26T18:36:44;101155.03;;;-8.25;45.01
65280;BME280;51878;55.748;48.742;2024-02-26T18:41:46;101134.91;;;-8.27;45.45
65280;BME280;51878;55.748;48.742;2024-02-26T18:46:48;101135.91;;;-8.36;45.83
65280;BME280;51878;55.748;48.742;2024-02-26T18:51:51;101041.28;;;-8.87;45.30
65280;BME280;51878;55.748;48.742;2024-02-26T18:56:53;101167.06;;;-8.10;45.89
65280;BME280;51878;55.748;48.742;2024-02-26T19:01:58;101170.63;;;-8.14;46.13
65280;BME280;51878;55.748;48.742;2024-02-26T19:07:02;101122.13;;;-8.49;46.11
65280;BME280;51878;55.748;48.742;2024-02-26T19:12:06;101167.25;;;-8.22;46.53
65280;BME280;51878;55.748;48.742;2024-02-26T19:17:10;101149.75;;;-8.25;47.05
65280;BME280;51878;55.748;48.742;2024-02-26T19:22:13;101162.06;;;-8.25;47.37
65280;BME280;51878;55.748;48.742;2024-02-26T19:27:18;101145.66;;;-8.40;47.59
65280;BME280;51878;55.748;48.742;2024-02-26T19:32:21;101168.22;;;-8.26;47.49
65280;BME280;51878;55.748;48.742;2024-02-26T19:37:27;101173.34;;;-8.19;47.76
65280;BME280;51878;55.748;48.742;2024-02-26T19:42:29;101149.66;;;-8.19;48.30
65280;BME280;51878;55.748;48.742;2024-02-26T19:47:31;101116.84;;;-8.47;48.92
65280;BME280;51878;55.748;48.742;2024-02-26T19:52:34;101125.25;;;-8.27;48.74
65280;BME280;51878;55.748;48.742;2024-02-26T19:57:37;101104.56;;;-8.47;49.61
65280;BME280;51878;55.748;48.742;2024-02-26T20:02:39;101141.16;;;-8.33;49.24
65280;BME280;51878;55.748;48.742;2024-02-26T20:07:42;101150.66;;;-8.24;49.47
65280;BME280;51878;55.748;48.742;2024-02-26T20:12:44;101115.91;;;-8.43;49.94
65280;BME280;51878;55.748;48.742;2024-02-26T20:17:47;101102.03;;;-8.52;49.59
65280;BME280;51878;55.748;48.742;2024-02-26T20:22:49;101136.66;;;-8.26;50.13
65280;BME280;51878;55.748;48.742;2024-02-26T20:27:51;101137.44;;;-8.23;50.31
65280;BME280;51878;55.748;48.742;2024-02-26T20:32:54;101141.16;;;-8.35;50.64
65280;BME280;51878;55.748;48.742;2024-02-26T20:37:56;101139.66;;;-8.46;51.66
65280;BME280;51878;55.748;48.742;2024-02-26T20:42:58;101110.00;;;-8.56;51.87
65280;BME280;51878;55.748;48.742;2024-02-26T20:48:00;101150.97;;;-8.44;51.74
65280;BME280;51878;55.748;48.742;2024-02-26T20:53:04;101087.88;;;-8.99;52.73
65280;BME280;51878;55.748;48.742;2024-02-26T20:58:06;101165.09;;;-8.50;52.64
65280;BME280;51878;55.748;48.742;2024-02-26T21:03:08;101160.78;;;-8.53;53.33
65280;BME280;51878;55.748;48.742;2024-02-26T21:08:12;101158.09;;;-8.51;53.52
65280;BME280;51878;55.748;48.742;2024-02-26T21:13:17;101127.75;;;-8.72;53.45
65280;BME280;51878;55.748;48.742;2024-02-26T21:18:20;101124.31;;;-8.76;53.57
65280;BME280;51878;55.748;48.742;2024-02-26T21:23:25;101153.81;;;-8.58;53.68
65280;BME280;51878;55.748;48.742;2024-02-26T21:28:28;101152.09;;;-8.59;54.18
65280;BME280;51878;55.748;48.742;2024-02-26T21:33:30;101146.09;;;-8.69;54.40
65280;BME280;51878;55.748;48.742;2024-02-26T21:38:32;101153.81;;;-8.55;54.22
65280;BME280;51878;55.748;48.742;2024-02-26T21:43:40;101134.81;;;-8.76;54.55
65280;BME280;51878;55.748;48.742;2024-02-26T21:48:42;101168.91;;;-8.69;54.91
65280;BME280;51878;55.748;48.742;2024-02-26T21:53:44;101136.94;;;-8.99;55.44
65280;BME280;51878;55.748;48.742;2024-02-26T21:58:48;101158.88;;;-9.06;55.77
65280;BME280;51878;55.748;48.742;2024-02-26T22:03:50;101176.28;;;-8.98;56.15
65280;BME280;51878;55.748;48.742;2024-02-26T22:08:52;101118.03;;;-9.26;56.23
65280;BME280;51878;55.748;48.742;2024-02-26T22:13:56;101136.41;;;-9.29;56.04
65280;BME280;51878;55.748;48.742;2024-02-26T22:19:00;101177.38;;;-9.14;56.10
65280;BME280;51878;55.748;48.742;2024-02-26T22:24:07;101180.03;;;-9.17;56.64
65280;BME280;51878;55.748;48.742;2024-02-26T22:29:10;101131.38;;;-9.46;56.15
65280;BME280;51878;55.748;48.742;2024-02-26T22:34:13;101136.66;;;-9.47;56.29
65280;BME280;51878;55.748;48.742;2024-02-26T22:39:16;101192.28;;;-9.18;56.07
65280;BME280;51878;55.748;48.742;2024-02-26T22:44:19;101148.81;;;-9.40;56.14
65280;BME280;51878;55.748;48.742;2024-02-26T22:49:21;101168.69;;;-9.19;55.37
65280;BME280;51878;55.748;48.742;2024-02-26T22:54:24;101113.03;;;-9.47;54.67
65280;BME280;51878;55.748;48.742;2024-02-26T22:59:26;101178.19;;;-9.10;54.67
65280;BME280;51878;55.748;48.742;2024-02-26T23:04:28;101135.75;;;-9.46;55.10
65280;BME280;51878;55.748;48.742;2024-02-26T23:09:30;101184.41;;;-9.18;55.48
65280;BME280;51878;55.748;48.742;2024-02-26T23:14:33;101194.91;;;-9.15;54.46
65280;BME280;51878;55.748;48.742;2024-02-26T23:19:36;101143.56;;;-9.42;53.89
65280;BME280;51878;55.748;48.742;2024-02-26T23:24:38;101135.69;;;-9.39;53.44
65280;BME280;51878;55.748;48.742;2024-02-26T23:29:40;101200.09;;;-9.11;54.21
65280;BME280;51878;55.748;48.742;2024-02-26T23:34:42;101079.28;;;-9.78;54.23
65280;BME280;51878;55.748;48.742;2024-02-26T23:39:48;101141.00;;;-9.45;54.32
65280;BME280;51878;55.748;48.742;2024-02-26T23:44:51;101165.22;;;-9.21;54.10
65280;BME280;51878;55.748;48.742;2024-02-26T23:49:53;101146.19;;;-9.39;53.54
65280;BME280;51878;55.748;48.742;2024-02-26T23:54:57;101149.41;;;-9.17;52.42
65280;BME280;51878;55.748;48.742;2024-02-26T23:59:59;101154.72;;;-9.23;51.76
